createdAt,value
2023-10-06T00:01:08.918Z,11.60
2023-10-06T00:03:39.860Z,11.50
2023-10-06T00:06:13.352Z,11.50
2023-10-06T00:08:41.984Z,11.40
2023-10-06T00:11:13.091Z,11.40
2023-10-06T00:13:53.044Z,11.40
2023-10-06T00:16:21.156Z,11.30
2023-10-06T00:18:54.002Z,11.30
2023-10-06T00:21:22.802Z,11.30
2023-10-06T00:23:50.841Z,11.20
2023-10-06T00:26:18.923Z,11.10
2023-10-06T00:28:52.865Z,11.10
2023-10-06T00:31:20.965Z,11.00
2023-10-06T00:33:51.565Z,11.00
2023-10-06T00:36:19.561Z,11.00
2023-10-06T00:38:51.668Z,11.00
2023-10-06T00:41:21.584Z,11.00
2023-10-06T00:43:51.572Z,11.00
2023-10-06T00:46:20.720Z,11.00
2023-10-06T00:48:55.195Z,10.90
2023-10-06T00:51:27.009Z,10.90
2023-10-06T00:53:57.542Z,10.90
2023-10-06T00:56:26.984Z,10.80
2023-10-06T00:58:55.308Z,10.80
2023-10-06T01:01:23.987Z,10.80
2023-10-06T01:04:02.495Z,10.70
2023-10-06T01:06:36.965Z,10.70
2023-10-06T01:09:15.529Z,10.70
2023-10-06T01:11:46.212Z,10.70
2023-10-06T01:14:22.472Z,10.60
2023-10-06T01:16:51.689Z,10.60
2023-10-06T01:19:28.239Z,10.60
2023-10-06T01:21:57.926Z,10.60
2023-10-06T01:24:27.631Z,10.50
2023-10-06T01:27:00.179Z,10.50
2023-10-06T01:29:31.557Z,10.50
2023-10-06T01:31:59.753Z,10.50
2023-10-06T01:34:28.663Z,10.40
2023-10-06T01:36:57.271Z,10.40
2023-10-06T01:39:27.382Z,10.40
2023-10-06T01:41:56.774Z,10.40
2023-10-06T01:44:25.034Z,10.40
2023-10-06T01:46:55.249Z,10.40
2023-10-06T01:49:23.852Z,10.30
2023-10-06T01:52:06.672Z,10.30
2023-10-06T01:54:37.207Z,10.30
2023-10-06T01:57:07.902Z,10.30
2023-10-06T01:59:36.472Z,10.30
2023-10-06T02:02:09.268Z,10.30
2023-10-06T02:04:46.087Z,10.20
2023-10-06T02:07:14.340Z,10.20
2023-10-06T02:09:42.612Z,10.20
2023-10-06T02:12:13.967Z,10.20
2023-10-06T02:14:42.317Z,10.10
2023-10-06T02:17:13.152Z,10.10
2023-10-06T02:19:44.055Z,10.10
2023-10-06T02:22:12.527Z,10.10
2023-10-06T02:24:41.354Z,10.10
2023-10-06T02:27:11.720Z,10.00
2023-10-06T02:29:39.831Z,10.00
2023-10-06T02:32:09.188Z,10.00
2023-10-06T02:34:39.735Z,9.90
2023-10-06T02:37:09.649Z,9.90
2023-10-06T02:39:39.862Z,9.90
2023-10-06T02:42:10.017Z,9.90
2023-10-06T02:44:42.388Z,9.90
2023-10-06T02:47:12.563Z,9.80
2023-10-06T02:49:42.477Z,9.80
2023-10-06T02:52:21.405Z,9.80
2023-10-06T02:54:58.102Z,9.70
2023-10-06T02:57:26.892Z,9.80
2023-10-06T02:59:58.334Z,9.80
2023-10-06T03:02:27.767Z,9.70
2023-10-06T03:05:11.722Z,9.70
2023-10-06T03:07:40.954Z,9.80
2023-10-06T03:10:09.928Z,9.70
2023-10-06T03:12:40.730Z,9.70
2023-10-06T03:15:29.693Z,9.70
2023-10-06T03:17:59.681Z,9.70
2023-10-06T03:20:31.126Z,9.70
2023-10-06T03:22:59.227Z,9.70
2023-10-06T03:25:29.440Z,9.60
2023-10-06T03:27:59.151Z,9.60
2023-10-06T03:30:29.998Z,9.60
2023-10-06T03:32:59.546Z,9.60
2023-10-06T03:35:40.296Z,9.60
2023-10-06T03:38:28.730Z,9.60
2023-10-06T03:41:10.777Z,9.60
2023-10-06T03:43:41.833Z,9.60
2023-10-06T03:46:15.587Z,9.60
2023-10-06T03:48:43.791Z,9.60
2023-10-06T03:51:12.503Z,9.60
2023-10-06T03:53:41.186Z,9.60
2023-10-06T03:56:09.877Z,9.60
2023-10-06T03:58:38.082Z,9.60
2023-10-06T04:01:10.456Z,9.60
2023-10-06T04:03:40.999Z,9.50
2023-10-06T04:06:14.020Z,9.50
2023-10-06T04:08:46.137Z,9.50
2023-10-06T04:11:16.095Z,9.50
2023-10-06T04:13:44.867Z,9.50
2023-10-06T04:16:14.822Z,9.50
2023-10-06T04:18:48.793Z,9.50
2023-10-06T04:21:17.195Z,9.40
2023-10-06T04:23:45.420Z,9.40
2023-10-06T04:26:16.783Z,9.40
2023-10-06T04:28:48.191Z,9.40
2023-10-06T04:31:17.528Z,9.40
2023-10-06T04:33:47.486Z,9.40
2023-10-06T04:36:22.033Z,9.30
2023-10-06T04:38:51.071Z,9.30
2023-10-06T04:41:21.582Z,9.30
2023-10-06T04:43:50.157Z,9.30
2023-10-06T04:46:18.477Z,9.30
2023-10-06T04:48:49.129Z,9.30
2023-10-06T04:51:17.530Z,9.30
2023-10-06T04:53:47.755Z,9.30
2023-10-06T04:56:15.800Z,9.20
2023-10-06T04:58:44.121Z,9.20
2023-10-06T05:01:13.283Z,9.20
2023-10-06T05:03:44.544Z,9.20
2023-10-06T05:06:17.587Z,9.20
2023-10-06T05:08:48.752Z,9.20
2023-10-06T05:11:18.321Z,9.20
2023-10-06T05:13:49.167Z,9.10
2023-10-06T05:16:19.969Z,9.10
2023-10-06T05:18:48.940Z,9.10
2023-10-06T05:21:20.371Z,9.10
2023-10-06T05:23:48.701Z,9.10
2023-10-06T05:26:17.445Z,9.10
2023-10-06T05:28:46.144Z,9.10
2023-10-06T05:31:14.420Z,9.10
2023-10-06T05:33:42.722Z,9.10
2023-10-06T05:36:12.447Z,9.10
2023-10-06T05:38:42.166Z,9.10
2023-10-06T05:41:13.381Z,9.10
2023-10-06T05:43:42.441Z,9.10
2023-10-06T05:46:11.583Z,9.10
2023-10-06T05:48:40.878Z,9.10
2023-10-06T05:51:10.981Z,9.10
2023-10-06T05:53:42.471Z,9.10
2023-10-06T05:56:13.238Z,9.20
2023-10-06T05:58:42.121Z,9.20
2023-10-06T06:01:14.315Z,9.20
2023-10-06T06:03:47.733Z,9.30
2023-10-06T06:06:23.435Z,9.40
2023-10-06T06:08:53.505Z,9.40
2023-10-06T06:11:21.897Z,9.40
2023-10-06T06:14:02.482Z,9.50
2023-10-06T06:16:35.468Z,9.60
2023-10-06T06:19:06.871Z,9.70
2023-10-06T06:21:35.958Z,9.80
2023-10-06T06:24:07.373Z,9.80
2023-10-06T06:26:37.753Z,9.90
2023-10-06T06:29:05.990Z,10.00
2023-10-06T06:31:34.666Z,10.10
2023-10-06T06:34:05.943Z,10.20
2023-10-06T06:36:34.478Z,10.20
2023-10-06T06:39:03.557Z,10.30
2023-10-06T06:41:34.416Z,10.40
2023-10-06T06:44:02.696Z,10.50
2023-10-06T06:46:31.708Z,10.60
2023-10-06T06:49:01.282Z,10.60
2023-10-06T06:51:31.953Z,10.60
2023-10-06T06:54:00.363Z,10.70
2023-10-06T06:56:29.960Z,10.90
2023-10-06T06:59:01.938Z,11.00
2023-10-06T07:01:30.389Z,11.20
2023-10-06T07:04:02.312Z,11.30
2023-10-06T07:06:32.363Z,11.40
2023-10-06T07:09:00.957Z,11.60
2023-10-06T07:11:29.283Z,11.60
2023-10-06T07:13:58.025Z,11.70
2023-10-06T07:16:27.643Z,11.80
2023-10-06T07:18:55.837Z,11.90
2023-10-06T07:21:24.694Z,12.00
2023-10-06T07:23:55.643Z,12.10
2023-10-06T07:26:24.480Z,12.30
2023-10-06T07:28:54.706Z,12.40
2023-10-06T07:31:22.777Z,12.50
2023-10-06T07:33:53.616Z,12.70
2023-10-06T07:36:21.814Z,12.80
2023-10-06T07:38:50.442Z,13.00
2023-10-06T07:41:21.460Z,13.20
2023-10-06T07:43:50.108Z,13.30
2023-10-06T07:46:18.679Z,13.50
2023-10-06T07:48:47.650Z,13.60
2023-10-06T07:51:17.650Z,13.70
2023-10-06T07:53:45.797Z,13.80
2023-10-06T07:56:15.830Z,13.90
2023-10-06T07:58:44.646Z,13.90
2023-10-06T08:01:14.253Z,14.00
2023-10-06T08:03:43.492Z,14.10
2023-10-06T08:06:12.870Z,14.20
2023-10-06T08:08:42.243Z,14.30
2023-10-06T08:11:11.356Z,14.40
2023-10-06T08:13:40.108Z,14.50
2023-10-06T08:16:08.988Z,14.60
2023-10-06T08:18:37.001Z,14.70
2023-10-06T08:21:05.153Z,14.70
2023-10-06T08:23:33.764Z,14.80
2023-10-06T08:26:08.881Z,14.80
2023-10-06T08:28:37.295Z,14.90
2023-10-06T08:31:06.028Z,15.00
2023-10-06T08:33:36.967Z,15.00
2023-10-06T08:36:09.357Z,15.20
2023-10-06T08:38:37.482Z,15.30
2023-10-06T08:41:09.065Z,15.40
2023-10-06T08:43:39.959Z,15.50
2023-10-06T08:46:10.415Z,15.60
2023-10-06T08:48:39.917Z,15.70
2023-10-06T08:51:12.242Z,15.70
2023-10-06T08:53:43.458Z,15.80
2023-10-06T08:56:16.575Z,16.00
2023-10-06T08:58:45.560Z,16.10
2023-10-06T09:01:15.558Z,16.20
2023-10-06T09:03:43.751Z,16.30
2023-10-06T09:06:13.112Z,16.40
2023-10-06T09:08:42.764Z,16.40
2023-10-06T09:11:13.218Z,16.50
2023-10-06T09:13:43.066Z,16.50
2023-10-06T09:16:13.040Z,16.70
2023-10-06T09:18:42.080Z,16.80
2023-10-06T09:21:17.238Z,16.90
2023-10-06T09:23:45.757Z,16.90
2023-10-06T09:26:16.958Z,16.90
2023-10-06T09:28:52.913Z,16.90
2023-10-06T09:31:36.247Z,17.00
2023-10-06T09:34:08.637Z,17.00
2023-10-06T09:36:44.369Z,17.20
2023-10-06T09:39:27.121Z,17.30
2023-10-06T09:41:56.895Z,17.50
2023-10-06T09:44:26.675Z,17.70
2023-10-06T09:46:55.405Z,17.80
2023-10-06T09:49:24.032Z,18.00
2023-10-06T09:51:53.946Z,18.10
2023-10-06T09:54:22.468Z,18.20
2023-10-06T09:56:56.164Z,18.20
2023-10-06T09:59:27.543Z,18.20
2023-10-06T10:01:55.332Z,18.20
2023-10-06T10:04:27.055Z,18.10
2023-10-06T10:06:56.071Z,18.00
2023-10-06T10:09:26.119Z,17.90
2023-10-06T10:12:05.509Z,17.90
2023-10-06T10:14:45.974Z,17.90
2023-10-06T10:17:24.736Z,18.10
2023-10-06T10:19:54.451Z,18.30
2023-10-06T10:22:22.577Z,18.60
2023-10-06T10:25:21.141Z,18.70
2023-10-06T10:27:39.288Z,18.80
2023-10-06T10:30:11.727Z,18.80
2023-10-06T10:32:43.841Z,18.80
2023-10-06T10:35:17.926Z,18.80
2023-10-06T10:37:57.254Z,18.70
2023-10-06T10:40:27.078Z,18.70
2023-10-06T10:43:05.070Z,18.70
2023-10-06T10:45:36.692Z,18.70
2023-10-06T10:48:14.547Z,18.70
2023-10-06T10:51:02.899Z,18.60
2023-10-06T10:53:32.563Z,18.60
2023-10-06T10:56:04.469Z,18.70
2023-10-06T10:58:56.370Z,18.80
2023-10-06T11:01:28.654Z,19.00
2023-10-06T11:04:30.682Z,19.10
2023-10-06T11:07:02.634Z,19.20
2023-10-06T11:09:41.610Z,19.10
2023-10-06T11:12:26.641Z,19.10
2023-10-06T11:15:03.820Z,19.10
2023-10-06T11:17:34.496Z,19.10
2023-10-06T11:20:13.893Z,19.10
2023-10-06T11:22:43.933Z,19.10
2023-10-06T11:25:12.028Z,19.10
2023-10-06T11:27:40.713Z,19.00
2023-10-06T11:30:16.294Z,19.10
2023-10-06T11:32:46.104Z,19.20
2023-10-06T11:35:14.683Z,19.30
2023-10-06T11:37:43.411Z,19.40
2023-10-06T11:40:13.925Z,19.50
2023-10-06T11:42:42.800Z,19.50
2023-10-06T11:45:25.283Z,19.50
2023-10-06T11:47:55.683Z,19.40
2023-10-06T11:50:32.680Z,19.40
2023-10-06T11:53:01.288Z,19.40
2023-10-06T11:55:36.125Z,19.40
2023-10-06T11:58:07.388Z,19.50
2023-10-06T12:00:38.264Z,19.60
2023-10-06T12:03:09.251Z,19.50
2023-10-06T12:05:37.657Z,19.50
2023-10-06T12:08:06.779Z,19.50
2023-10-06T12:10:34.946Z,19.40
2023-10-06T12:15:34.395Z,19.40
2023-10-06T12:18:02.854Z,19.40
2023-10-06T12:20:36.807Z,19.50
2023-10-06T12:23:04.892Z,19.60
2023-10-06T12:25:32.939Z,19.60
2023-10-06T12:28:01.530Z,19.70
2023-10-06T12:30:30.280Z,19.70
2023-10-06T12:32:59.336Z,19.80
2023-10-06T12:35:30.149Z,19.90
2023-10-06T12:38:01.559Z,19.90
2023-10-06T12:40:31.100Z,19.80
2023-10-06T12:42:59.149Z,19.80
2023-10-06T12:45:30.155Z,19.90
2023-10-06T12:47:58.181Z,19.80
2023-10-06T12:50:26.178Z,19.80
2023-10-06T12:52:54.269Z,19.80
2023-10-06T12:55:25.937Z,19.70
2023-10-06T12:57:55.164Z,19.70
2023-10-06T13:00:23.319Z,19.80
2023-10-06T13:02:51.504Z,19.70
2023-10-06T13:08:11.024Z,19.70
2023-10-06T13:10:40.933Z,19.80
2023-10-06T13:13:08.880Z,19.80
2023-10-06T13:15:36.950Z,19.90
2023-10-06T13:18:09.116Z,19.90
2023-10-06T13:20:37.571Z,20.00
2023-10-06T13:23:06.626Z,20.10
2023-10-06T13:25:38.325Z,20.20
2023-10-06T13:28:15.916Z,20.20
2023-10-06T13:30:45.185Z,20.20
2023-10-06T13:33:15.521Z,20.20
2023-10-06T13:35:45.196Z,20.10
2023-10-06T13:38:14.401Z,20.10
2023-10-06T13:40:45.984Z,20.10
2023-10-06T13:43:15.743Z,20.20
2023-10-06T13:45:46.530Z,20.20
2023-10-06T13:48:17.482Z,20.20
2023-10-06T13:50:47.142Z,20.10
2023-10-06T13:53:16.477Z,20.10
2023-10-06T13:55:45.803Z,20.10
2023-10-06T13:58:15.615Z,20.10
2023-10-06T14:00:43.758Z,20.10
2023-10-06T14:03:15.140Z,20.00
2023-10-06T14:05:44.955Z,20.10
2023-10-06T14:08:14.921Z,20.10
2023-10-06T14:10:43.844Z,20.10
2023-10-06T14:13:17.974Z,20.00
2023-10-06T14:15:50.588Z,20.00
2023-10-06T14:18:23.241Z,19.90
2023-10-06T14:20:51.844Z,20.00
2023-10-06T14:23:25.241Z,20.00
2023-10-06T14:25:57.211Z,19.90
2023-10-06T14:28:25.391Z,19.90
2023-10-06T14:30:57.312Z,20.00
2023-10-06T14:33:29.638Z,19.90
2023-10-06T14:36:22.146Z,19.90
2023-10-06T14:39:08.003Z,20.00
2023-10-06T14:41:53.463Z,19.90
2023-10-06T14:44:39.151Z,19.90
2023-10-06T14:47:10.660Z,19.90
2023-10-06T14:49:43.648Z,19.80
2023-10-06T14:52:12.228Z,19.80
2023-10-06T14:54:41.248Z,19.70
2023-10-06T14:57:09.424Z,19.60
2023-10-06T14:59:38.405Z,19.60
2023-10-06T15:02:11.160Z,19.50
2023-10-06T15:04:41.320Z,19.50
2023-10-06T15:07:15.697Z,19.40
2023-10-06T15:09:45.317Z,19.40
2023-10-06T15:12:15.767Z,19.40
2023-10-06T15:14:45.630Z,19.30
2023-10-06T15:17:15.749Z,19.30
2023-10-06T15:19:47.540Z,19.30
2023-10-06T15:22:15.961Z,19.30
2023-10-06T15:24:44.011Z,19.30
2023-10-06T15:27:12.380Z,19.30
2023-10-06T15:29:42.930Z,19.30
2023-10-06T15:32:12.851Z,19.30
2023-10-06T15:34:42.645Z,19.30
2023-10-06T15:37:10.729Z,19.30
2023-10-06T15:39:40.009Z,19.20
2023-10-06T15:42:09.834Z,19.10
2023-10-06T15:44:38.694Z,19.10
2023-10-06T15:47:08.881Z,19.00
2023-10-06T15:49:38.709Z,18.90
2023-10-06T15:52:09.446Z,18.80
2023-10-06T15:54:41.182Z,18.70
2023-10-06T15:57:10.314Z,18.50
2023-10-06T15:59:39.411Z,18.40
2023-10-06T16:02:11.032Z,18.40
2023-10-06T16:04:40.253Z,18.40
2023-10-06T16:07:11.579Z,18.30
2023-10-06T16:09:39.727Z,18.20
2023-10-06T16:12:12.636Z,18.10
2023-10-06T16:14:40.714Z,18.00
2023-10-06T16:17:10.146Z,18.00
2023-10-06T16:19:42.857Z,17.90
2023-10-06T16:22:12.203Z,17.80
2023-10-06T16:24:40.237Z,17.80
2023-10-06T16:27:08.198Z,17.70
2023-10-06T16:29:36.656Z,17.60
2023-10-06T16:32:05.481Z,17.60
2023-10-06T16:34:33.600Z,17.50
2023-10-06T16:37:01.567Z,17.40
2023-10-06T16:39:31.124Z,17.30
2023-10-06T16:41:59.104Z,17.30
2023-10-06T16:44:27.148Z,17.30
2023-10-06T16:46:56.462Z,17.20
2023-10-06T16:49:24.484Z,17.20
2023-10-06T16:51:52.556Z,17.20
2023-10-06T16:54:21.380Z,17.20
2023-10-06T16:56:50.733Z,17.10
2023-10-06T16:59:18.680Z,17.10
2023-10-06T17:01:46.662Z,17.10
2023-10-06T17:04:16.630Z,17.10
2023-10-06T17:06:46.755Z,17.10
2023-10-06T17:09:18.127Z,17.00
2023-10-06T17:11:46.418Z,17.00
2023-10-06T17:14:15.928Z,17.00
2023-10-06T17:16:44.110Z,17.00
2023-10-06T17:19:14.736Z,17.00
2023-10-06T17:24:32.257Z,17.00
2023-10-06T17:27:00.337Z,17.00
2023-10-06T17:29:30.189Z,17.00
2023-10-06T17:31:58.628Z,16.90
2023-10-06T17:34:26.817Z,16.90
2023-10-06T17:37:12.114Z,16.90
2023-10-06T17:39:42.945Z,16.90
2023-10-06T17:42:11.460Z,16.90
2023-10-06T17:44:43.454Z,16.80
2023-10-06T17:47:11.535Z,16.80
2023-10-06T17:49:40.583Z,16.80
2023-10-06T17:52:09.808Z,16.80
2023-10-06T17:54:37.858Z,16.70
2023-10-06T17:57:05.940Z,16.70
2023-10-06T17:59:33.909Z,16.70
2023-10-06T18:02:03.454Z,16.70
2023-10-06T18:04:31.777Z,16.70
2023-10-06T18:06:59.823Z,16.70
2023-10-06T18:09:28.168Z,16.60
2023-10-06T18:14:27.444Z,16.60
2023-10-06T18:16:56.255Z,16.60
2023-10-06T18:19:29.003Z,16.60
2023-10-06T18:21:57.853Z,16.60
2023-10-06T18:24:26.253Z,16.60
2023-10-06T18:26:54.614Z,16.60
2023-10-06T18:29:24.173Z,16.60
2023-10-06T18:31:53.095Z,16.60
2023-10-06T18:34:21.268Z,16.50
2023-10-06T18:36:51.110Z,16.50
2023-10-06T18:39:23.146Z,16.60
2023-10-06T18:41:51.153Z,16.50
2023-10-06T18:44:19.234Z,16.60
2023-10-06T18:46:47.610Z,16.60
2023-10-06T18:49:16.269Z,16.60
2023-10-06T18:51:45.759Z,16.50
2023-10-06T18:54:15.337Z,16.50
2023-10-06T18:56:43.483Z,16.50
2023-10-06T18:59:12.410Z,16.50
2023-10-06T19:01:40.723Z,16.50
2023-10-06T19:04:10.849Z,16.50
2023-10-06T19:06:41.897Z,16.40
2023-10-06T19:09:11.824Z,16.50
2023-10-06T19:11:41.566Z,16.40
2023-10-06T19:14:09.646Z,16.40
2023-10-06T19:16:37.700Z,16.40
2023-10-06T19:19:06.127Z,16.40
2023-10-06T19:21:34.265Z,16.30
2023-10-06T19:24:05.162Z,16.30
2023-10-06T19:26:36.081Z,16.30
2023-10-06T19:29:06.285Z,16.30
2023-10-06T19:31:34.484Z,16.30
2023-10-06T19:34:03.050Z,16.30
2023-10-06T19:36:35.363Z,16.30
2023-10-06T19:39:04.691Z,16.30
2023-10-06T19:41:33.602Z,16.30
2023-10-06T19:44:01.670Z,16.30
2023-10-06T19:46:31.028Z,16.30
2023-10-06T19:48:59.462Z,16.30
2023-10-06T19:51:27.610Z,16.30
2023-10-06T19:53:55.670Z,16.30
2023-10-06T19:56:25.317Z,16.30
2023-10-06T19:58:55.088Z,16.30
2023-10-06T20:01:25.328Z,16.40
2023-10-06T20:03:55.339Z,16.30
2023-10-06T20:06:23.475Z,16.40
2023-10-06T20:08:51.539Z,16.40
2023-10-06T20:11:21.701Z,16.40
2023-10-06T20:13:50.672Z,16.40
2023-10-06T20:16:19.797Z,16.40
2023-10-06T20:18:48.017Z,16.40
2023-10-06T20:21:18.609Z,16.50
2023-10-06T20:23:48.941Z,16.40
2023-10-06T20:26:17.635Z,16.40
2023-10-06T20:28:45.718Z,16.50
2023-10-06T20:31:14.420Z,16.50
2023-10-06T20:33:43.142Z,16.40
2023-10-06T20:36:11.258Z,16.40
2023-10-06T20:38:41.080Z,16.50
2023-10-06T20:41:09.136Z,16.40
2023-10-06T20:43:37.185Z,16.40
2023-10-06T20:46:06.274Z,16.40
2023-10-06T20:48:34.887Z,16.40
2023-10-06T20:51:03.365Z,16.40
2023-10-06T20:53:33.349Z,16.40
2023-10-06T20:56:04.472Z,16.40
2023-10-06T20:58:32.647Z,16.50
2023-10-06T21:01:07.651Z,16.50
2023-10-06T21:03:36.426Z,16.50
2023-10-06T21:06:04.777Z,16.40
2023-10-06T21:08:32.862Z,16.40
2023-10-06T21:11:03.045Z,16.40
2023-10-06T21:13:31.141Z,16.40
2023-10-06T21:15:59.189Z,16.30
2023-10-06T21:18:28.136Z,16.30
2023-10-06T21:20:56.209Z,16.30
2023-10-06T21:23:24.257Z,16.30
2023-10-06T21:25:52.592Z,16.20
2023-10-06T21:28:23.930Z,16.20
2023-10-06T21:30:52.124Z,16.20
2023-10-06T21:33:20.730Z,16.20
2023-10-06T21:35:48.703Z,16.10
2023-10-06T21:38:16.863Z,16.10
2023-10-06T21:40:45.088Z,16.10
2023-10-06T21:43:13.322Z,16.10
2023-10-06T21:45:42.715Z,16.10
2023-10-06T21:48:10.724Z,16.10
2023-10-06T21:50:38.764Z,16.00
2023-10-06T21:53:06.750Z,16.00
2023-10-06T21:55:34.834Z,16.00
2023-10-06T21:58:04.950Z,16.00
2023-10-06T22:00:33.821Z,16.00
2023-10-06T22:03:03.232Z,16.00
2023-10-06T22:05:31.241Z,16.00
2023-10-06T22:08:01.394Z,16.00
2023-10-06T22:10:29.516Z,16.00
2023-10-06T22:12:57.541Z,16.00
2023-10-06T22:15:25.556Z,16.00
2023-10-06T22:17:53.846Z,16.00
2023-10-06T22:20:23.320Z,16.00
2023-10-06T22:22:51.823Z,15.90
2023-10-06T22:25:20.763Z,15.90
2023-10-06T22:27:48.988Z,15.90
2023-10-06T22:30:17.141Z,15.90
2023-10-06T22:32:45.232Z,15.90
2023-10-06T22:35:14.434Z,15.90
2023-10-06T22:37:43.889Z,15.90
2023-10-06T22:40:17.676Z,15.90
2023-10-06T22:42:48.642Z,15.90
2023-10-06T22:45:17.244Z,15.80
2023-10-06T22:47:49.386Z,15.90
2023-10-06T22:50:20.404Z,15.90
2023-10-06T22:52:51.588Z,15.80
2023-10-06T22:55:20.917Z,15.80
2023-10-06T22:57:50.004Z,15.80
2023-10-06T23:00:19.237Z,15.80
2023-10-06T23:02:49.079Z,15.80
2023-10-06T23:05:17.392Z,15.80
2023-10-06T23:07:46.473Z,15.80
2023-10-06T23:10:17.358Z,15.80
2023-10-06T23:12:50.313Z,15.80
2023-10-06T23:15:18.786Z,15.80
2023-10-06T23:17:47.243Z,15.80
2023-10-06T23:20:25.147Z,15.80
2023-10-06T23:22:59.282Z,15.80
2023-10-06T23:25:37.391Z,15.80
2023-10-06T23:28:08.599Z,15.80
2023-10-06T23:30:38.173Z,15.80
2023-10-06T23:33:07.219Z,15.80
2023-10-06T23:35:36.235Z,15.80
2023-10-06T23:38:07.815Z,15.80
2023-10-06T23:40:39.634Z,15.80
2023-10-06T23:43:08.167Z,15.80
2023-10-06T23:45:38.035Z,15.80
2023-10-06T23:48:12.711Z,15.80
2023-10-06T23:50:52.522Z,15.80
2023-10-06T23:53:23.795Z,15.80
2023-10-06T23:55:54.234Z,15.80
2023-10-06T23:58:23.727Z,15.80
